createdAt,value
2019-02-06T00:00:41.272Z,45.00
2019-02-06T00:03:12.387Z,40.07
2019-02-06T00:05:42.151Z,39.97
2019-02-06T00:08:12.149Z,43.47
2019-02-06T00:10:42.152Z,48.83
2019-02-06T00:13:12.070Z,36.43
2019-02-06T00:15:41.824Z,42.63
2019-02-06T00:18:11.971Z,43.63
2019-02-06T00:20:41.820Z,41.23
2019-02-06T00:23:11.477Z,40.38
2019-02-06T00:25:41.976Z,36.70
2019-02-06T00:28:11.642Z,40.10
2019-02-06T00:30:41.480Z,42.20
2019-02-06T00:33:11.762Z,37.13
2019-02-06T00:35:42.109Z,39.30
2019-02-06T00:38:12.024Z,37.83
2019-02-06T00:40:42.126Z,35.80
2019-02-06T00:43:12.351Z,41.50
2019-02-06T00:45:42.425Z,36.20
2019-02-06T00:48:12.518Z,35.28
2019-02-06T00:50:42.278Z,36.70
2019-02-06T00:53:11.971Z,34.97
2019-02-06T00:55:41.746Z,34.03
2019-02-06T00:58:11.437Z,34.90
2019-02-06T01:00:41.912Z,30.37
2019-02-06T01:03:11.886Z,30.10
2019-02-06T01:05:41.970Z,30.33
2019-02-06T01:08:11.997Z,29.47
2019-02-06T01:10:41.744Z,26.97
2019-02-06T01:13:11.548Z,26.73
2019-02-06T01:15:41.829Z,26.80
2019-02-06T01:18:11.566Z,27.07
2019-02-06T01:20:41.300Z,29.03
2019-02-06T01:23:11.014Z,27.17
2019-02-06T01:25:42.620Z,26.03
2019-02-06T01:28:12.637Z,23.87
2019-02-06T01:30:54.822Z,24.13
2019-02-06T01:33:24.638Z,25.10
2019-02-06T01:35:54.301Z,26.37
2019-02-06T01:38:23.980Z,26.80
2019-02-06T01:40:53.657Z,22.00
2019-02-06T01:43:23.665Z,24.55
2019-02-06T01:45:53.328Z,21.87
2019-02-06T01:48:23.248Z,21.40
2019-02-06T01:50:53.153Z,23.20
2019-02-06T01:53:22.888Z,24.27
2019-02-06T01:55:52.586Z,23.40
2019-02-06T01:58:22.436Z,24.70
2019-02-06T02:00:52.184Z,23.97
2019-02-06T02:03:22.194Z,25.47
2019-02-06T02:06:01.732Z,27.93
2019-02-06T02:08:23.493Z,25.10
2019-02-06T02:10:53.165Z,24.53
2019-02-06T02:13:23.480Z,21.87
2019-02-06T02:15:53.139Z,22.50
2019-02-06T02:18:23.052Z,21.95
2019-02-06T02:20:52.709Z,21.63
2019-02-06T02:23:22.451Z,22.27
2019-02-06T02:25:52.834Z,23.70
2019-02-06T02:28:22.732Z,21.53
2019-02-06T02:30:55.437Z,19.83
2019-02-06T02:33:25.186Z,22.20
2019-02-06T02:35:55.398Z,19.47
2019-02-06T02:38:25.193Z,22.17
2019-02-06T02:40:55.451Z,21.60
2019-02-06T02:43:25.067Z,18.00
2019-02-06T02:45:55.465Z,19.27
2019-02-06T02:48:25.133Z,20.77
2019-02-06T02:50:55.446Z,17.50
2019-02-06T02:53:26.156Z,17.77
2019-02-06T02:55:55.972Z,17.13
2019-02-06T02:58:25.662Z,17.27
2019-02-06T03:01:14.589Z,22.97
2019-02-06T03:04:03.432Z,21.43
2019-02-06T03:06:33.179Z,18.90
2019-02-06T03:09:03.210Z,20.92
2019-02-06T03:11:34.802Z,20.77
2019-02-06T03:14:05.542Z,19.32
2019-02-06T03:16:35.562Z,18.77
2019-02-06T03:19:06.277Z,19.53
2019-02-06T03:21:36.260Z,19.63
2019-02-06T03:24:06.384Z,21.33
2019-02-06T03:26:36.139Z,17.97
2019-02-06T03:29:05.875Z,17.97
2019-02-06T03:31:35.891Z,19.90
2019-02-06T03:34:05.706Z,17.77
2019-02-06T03:36:40.330Z,18.87
2019-02-06T03:39:09.399Z,15.17
2019-02-06T03:41:39.402Z,18.17
2019-02-06T03:44:09.420Z,20.23
2019-02-06T03:46:39.452Z,19.07
2019-02-06T03:49:09.338Z,17.50
2019-02-06T03:51:40.480Z,18.77
2019-02-06T03:54:10.309Z,15.68
2019-02-06T03:56:41.081Z,20.97
2019-02-06T03:59:11.045Z,19.98
2019-02-06T04:01:40.789Z,17.47
2019-02-06T04:04:10.659Z,16.80
2019-02-06T04:06:52.736Z,15.30
2019-02-06T04:09:12.308Z,16.40
2019-02-06T04:11:41.981Z,15.77
2019-02-06T04:14:12.650Z,17.87
2019-02-06T04:16:43.672Z,15.10
2019-02-06T04:19:14.213Z,15.80
2019-02-06T04:21:44.944Z,16.03
2019-02-06T04:24:14.617Z,14.93
2019-02-06T04:26:44.649Z,17.70
2019-02-06T04:29:14.396Z,14.97
2019-02-06T04:31:44.312Z,17.70
2019-02-06T04:34:14.008Z,18.45
2019-02-06T04:36:43.896Z,14.30
2019-02-06T04:39:13.494Z,15.43
2019-02-06T04:41:43.442Z,13.90
2019-02-06T04:44:13.306Z,17.10
2019-02-06T04:46:42.983Z,17.00
2019-02-06T04:49:12.879Z,15.98
2019-02-06T04:51:42.550Z,13.03
2019-02-06T04:54:13.317Z,13.93
2019-02-06T04:56:44.365Z,13.87
2019-02-06T04:59:14.053Z,14.47
2019-02-06T05:01:43.711Z,12.77
2019-02-06T05:04:13.684Z,13.50
2019-02-06T05:06:43.598Z,16.93
2019-02-06T05:09:13.257Z,14.50
2019-02-06T05:11:43.247Z,18.03
2019-02-06T05:14:12.905Z,17.33
2019-02-06T05:16:42.573Z,15.87
2019-02-06T05:19:12.248Z,15.30
2019-02-06T05:21:43.098Z,15.97
2019-02-06T05:24:12.852Z,19.00
2019-02-06T05:26:42.628Z,17.17
2019-02-06T05:29:12.303Z,14.25
2019-02-06T05:31:42.196Z,14.63
2019-02-06T05:34:11.857Z,15.50
2019-02-06T05:36:41.517Z,16.60
2019-02-06T05:39:12.249Z,15.43
2019-02-06T05:41:42.183Z,17.42
2019-02-06T05:44:11.881Z,16.17
2019-02-06T05:46:41.632Z,14.63
2019-02-06T05:49:12.410Z,15.13
2019-02-06T05:51:42.081Z,14.77
2019-02-06T05:54:11.996Z,15.53
2019-02-06T05:56:41.674Z,15.10
2019-02-06T05:59:11.469Z,16.80
2019-02-06T06:01:41.250Z,15.73
2019-02-06T06:04:11.008Z,17.98
2019-02-06T06:06:40.766Z,13.90
2019-02-06T06:09:10.791Z,15.60
2019-02-06T06:11:40.769Z,17.00
2019-02-06T06:14:10.437Z,15.13
2019-02-06T06:16:40.357Z,16.13
2019-02-06T06:19:10.325Z,15.95
2019-02-06T06:21:40.367Z,17.93
2019-02-06T06:24:10.107Z,14.85
2019-02-06T06:26:40.439Z,13.17
2019-02-06T06:29:10.849Z,16.50
2019-02-06T06:31:41.560Z,17.03
2019-02-06T06:34:11.602Z,16.57
2019-02-06T06:39:22.699Z,17.70
2019-02-06T06:41:52.389Z,16.43
2019-02-06T06:44:22.066Z,15.88
2019-02-06T06:46:51.741Z,16.20
2019-02-06T06:49:21.397Z,15.67
2019-02-06T06:51:51.090Z,15.10
2019-02-06T06:54:20.756Z,16.90
2019-02-06T06:56:50.515Z,18.90
2019-02-06T06:59:20.333Z,13.13
2019-02-06T07:01:50.148Z,14.03
2019-02-06T07:04:20.109Z,15.55
2019-02-06T07:06:50.008Z,16.10
2019-02-06T07:09:19.929Z,12.75
2019-02-06T07:11:49.588Z,15.33
2019-02-06T07:14:19.720Z,15.10
2019-02-06T07:16:49.365Z,15.03
2019-02-06T07:19:19.051Z,13.53
2019-02-06T07:21:48.764Z,14.73
2019-02-06T07:24:18.445Z,15.17
2019-02-06T07:26:49.400Z,13.97
2019-02-06T07:29:19.110Z,15.35
2019-02-06T07:31:49.745Z,14.47
2019-02-06T07:34:19.814Z,17.00
2019-02-06T07:36:50.272Z,13.20
2019-02-06T07:39:21.014Z,14.25
2019-02-06T07:41:50.754Z,13.13
2019-02-06T07:44:20.512Z,17.15
2019-02-06T07:46:50.172Z,13.10
2019-02-06T07:49:19.865Z,14.67
2019-02-06T07:51:50.462Z,16.50
2019-02-06T07:54:20.261Z,16.80
2019-02-06T07:56:49.947Z,13.90
2019-02-06T07:59:19.605Z,15.27
2019-02-06T08:01:49.797Z,14.77
2019-02-06T08:04:19.469Z,15.32
2019-02-06T08:06:50.330Z,16.27
2019-02-06T08:09:23.375Z,12.80
2019-02-06T08:11:53.124Z,13.93
2019-02-06T08:14:22.897Z,14.80
2019-02-06T08:16:53.242Z,15.10
2019-02-06T08:19:22.906Z,15.67
2019-02-06T08:21:52.587Z,13.97
2019-02-06T08:24:22.273Z,12.33
2019-02-06T08:26:52.265Z,14.83
2019-02-06T08:29:22.086Z,13.77
2019-02-06T08:31:51.753Z,11.83
2019-02-06T08:34:21.716Z,14.83
2019-02-06T08:36:51.444Z,15.43
2019-02-06T08:39:21.107Z,14.27
2019-02-06T08:41:50.804Z,15.07
2019-02-06T08:44:20.509Z,14.33
2019-02-06T08:46:50.178Z,14.00
2019-02-06T08:49:20.124Z,12.40
2019-02-06T08:51:49.785Z,13.43
2019-02-06T08:54:20.379Z,11.80
2019-02-06T08:56:50.309Z,13.17
2019-02-06T08:59:19.981Z,11.90
2019-02-06T09:01:49.661Z,12.97
2019-02-06T09:04:19.637Z,12.78
2019-02-06T09:06:49.313Z,12.60
2019-02-06T09:09:19.305Z,14.40
2019-02-06T09:11:49.220Z,12.70
2019-02-06T09:14:19.092Z,13.80
2019-02-06T09:16:48.764Z,14.30
2019-02-06T09:19:18.512Z,12.93
2019-02-06T09:21:48.370Z,13.47
2019-02-06T09:24:18.025Z,13.47
2019-02-06T09:26:47.973Z,14.10
2019-02-06T09:29:17.720Z,17.27
2019-02-06T09:31:47.410Z,15.33
2019-02-06T09:34:17.576Z,12.80
2019-02-06T09:36:47.234Z,14.50
2019-02-06T09:39:16.918Z,13.90
2019-02-06T09:41:46.730Z,15.43
2019-02-06T09:44:16.617Z,12.83
2019-02-06T09:46:46.287Z,15.43
2019-02-06T09:49:16.317Z,16.63
2019-02-06T09:51:46.456Z,13.63
2019-02-06T09:54:17.116Z,17.07
2019-02-06T09:56:47.051Z,13.37
2019-02-06T09:59:17.004Z,12.87
2019-02-06T10:01:46.686Z,17.40
2019-02-06T10:04:17.152Z,15.27
2019-02-06T10:06:46.827Z,14.77
2019-02-06T10:09:22.880Z,16.47
2019-02-06T10:11:48.020Z,15.33
2019-02-06T10:14:17.946Z,16.60
2019-02-06T10:16:47.609Z,17.93
2019-02-06T10:19:17.553Z,16.37
2019-02-06T10:21:50.371Z,16.70
2019-02-06T10:24:19.318Z,15.55
2019-02-06T10:27:06.945Z,16.43
2019-02-06T10:29:36.728Z,17.00
2019-02-06T10:32:07.219Z,20.03
2019-02-06T10:34:37.133Z,16.73
2019-02-06T10:37:07.402Z,17.63
2019-02-06T10:39:37.087Z,15.50
2019-02-06T10:42:06.892Z,17.40
2019-02-06T10:44:37.542Z,21.90
2019-02-06T10:47:07.361Z,20.23
2019-02-06T10:49:37.270Z,19.53
2019-02-06T10:52:07.694Z,15.67
2019-02-06T10:54:37.361Z,17.83
2019-02-06T10:57:10.051Z,17.03
2019-02-06T10:59:41.788Z,22.10
2019-02-06T11:02:12.309Z,20.13
2019-02-06T11:04:42.203Z,19.00
2019-02-06T11:07:12.542Z,19.87
2019-02-06T11:09:45.896Z,20.10
2019-02-06T11:12:15.103Z,20.00
2019-02-06T11:14:45.516Z,17.87
2019-02-06T11:17:15.189Z,21.23
2019-02-06T11:19:44.929Z,22.23
2019-02-06T11:22:14.704Z,20.87
2019-02-06T11:24:44.376Z,20.23
2019-02-06T11:27:15.673Z,20.83
2019-02-06T11:29:48.263Z,23.07
2019-02-06T11:32:16.873Z,18.27
2019-02-06T11:34:46.772Z,17.77
2019-02-06T11:37:16.828Z,20.57
2019-02-06T11:39:57.265Z,20.23
2019-02-06T11:42:19.184Z,21.03
2019-02-06T11:44:48.977Z,22.17
2019-02-06T11:47:19.114Z,22.47
2019-02-06T11:49:51.048Z,19.40
2019-02-06T11:52:22.225Z,21.30
2019-02-06T11:54:51.910Z,21.43
2019-02-06T11:57:24.167Z,20.33
2019-02-06T11:59:53.274Z,19.07
2019-02-06T12:02:36.697Z,14.68
2019-02-06T12:04:56.477Z,16.07
2019-02-06T12:07:26.144Z,18.63
2019-02-06T12:09:55.890Z,20.60
2019-02-06T12:12:25.546Z,21.63
2019-02-06T12:14:55.477Z,19.13
2019-02-06T12:17:25.146Z,22.70
2019-02-06T12:19:54.848Z,19.53
2019-02-06T12:22:24.515Z,18.53
2019-02-06T12:24:54.430Z,21.53
2019-02-06T12:27:24.180Z,21.30
2019-02-06T12:29:54.824Z,24.07
2019-02-06T12:32:24.536Z,24.40
2019-02-06T12:34:54.372Z,20.17
2019-02-06T12:37:24.172Z,20.77
2019-02-06T12:39:53.836Z,24.27
2019-02-06T12:42:23.886Z,21.60
2019-02-06T12:44:53.697Z,23.47
2019-02-06T12:47:23.447Z,23.83
2019-02-06T12:49:53.133Z,23.47
2019-02-06T12:52:23.252Z,21.03
2019-02-06T12:54:53.117Z,21.73
2019-02-06T12:57:22.938Z,24.00
2019-02-06T12:59:52.700Z,22.87
2019-02-06T13:02:22.521Z,21.60
2019-02-06T13:04:52.253Z,22.17
2019-02-06T13:07:21.946Z,19.13
2019-02-06T13:09:51.790Z,23.20
2019-02-06T13:12:22.418Z,20.65
2019-02-06T13:14:52.356Z,20.93
2019-02-06T13:17:22.034Z,21.00
2019-02-06T13:19:51.721Z,22.27
2019-02-06T13:22:21.402Z,25.17
2019-02-06T13:24:51.522Z,23.37
2019-02-06T13:27:21.198Z,22.17
2019-02-06T13:29:50.882Z,22.40
2019-02-06T13:32:22.058Z,20.00
2019-02-06T13:34:51.739Z,23.83
2019-02-06T13:37:22.145Z,21.47
2019-02-06T13:39:52.067Z,19.60
2019-02-06T13:42:22.350Z,24.32
2019-02-06T13:44:52.489Z,22.40
2019-02-06T13:47:22.637Z,25.07
2019-02-06T13:49:52.315Z,19.20
2019-02-06T13:52:23.052Z,19.23
2019-02-06T13:54:52.900Z,22.80
2019-02-06T13:57:33.443Z,24.37
2019-02-06T13:59:54.470Z,23.77
2019-02-06T14:02:24.313Z,22.40
2019-02-06T14:04:53.993Z,24.93
2019-02-06T14:07:23.741Z,23.27
2019-02-06T14:09:53.498Z,22.30
2019-02-06T14:12:23.582Z,21.68
2019-02-06T14:14:54.326Z,19.70
2019-02-06T14:17:24.141Z,23.50
2019-02-06T14:19:54.252Z,21.43
2019-02-06T14:22:24.275Z,22.90
2019-02-06T14:24:58.346Z,20.17
2019-02-06T14:28:02.714Z,20.37
2019-02-06T14:31:02.729Z,18.40
2019-02-06T14:33:42.983Z,24.03
2019-02-06T14:37:01.417Z,22.87
2019-02-06T14:40:15.127Z,22.13
2019-02-06T14:43:16.053Z,21.43
2019-02-06T14:46:12.630Z,22.63
2019-02-06T14:49:37.597Z,20.17
2019-02-06T14:52:39.689Z,19.10
2019-02-06T14:55:41.109Z,23.17
2019-02-06T14:58:59.629Z,21.57
2019-02-06T15:02:10.244Z,24.20
2019-02-06T15:05:13.791Z,23.80
2019-02-06T15:08:22.873Z,18.63
2019-02-06T15:11:21.589Z,21.53
2019-02-06T15:14:17.615Z,20.03
2019-02-06T15:17:15.923Z,20.60
2019-02-06T15:20:15.300Z,21.17
2019-02-06T15:23:03.856Z,21.17
2019-02-06T15:25:55.235Z,23.97
2019-02-06T15:28:48.245Z,20.80
2019-02-06T15:31:50.180Z,21.42
2019-02-06T15:34:37.788Z,23.67
2019-02-06T15:37:29.746Z,22.23
2019-02-06T15:40:48.833Z,25.50
2019-02-06T15:43:48.075Z,21.73
2019-02-06T15:49:37.402Z,26.07
2019-02-06T15:52:25.268Z,24.70
2019-02-06T15:55:34.082Z,21.43
2019-02-06T15:58:27.412Z,27.07
2019-02-06T16:01:52.876Z,24.17
2019-02-06T16:05:24.720Z,23.00
2019-02-06T16:12:28.418Z,26.43
2019-02-06T16:15:13.017Z,23.23
2019-02-06T16:18:28.548Z,26.70
2019-02-06T16:21:52.495Z,25.13
2019-02-06T16:25:05.632Z,25.90
2019-02-06T16:28:00.858Z,27.90
2019-02-06T16:30:57.650Z,23.10
2019-02-06T16:34:06.422Z,27.53
2019-02-06T16:37:26.216Z,27.10
2019-02-06T16:40:21.706Z,25.47
2019-02-06T16:43:25.241Z,24.43
2019-02-06T16:46:23.677Z,29.43
2019-02-06T16:49:20.741Z,25.67
2019-02-06T16:52:09.824Z,23.67
2019-02-06T16:55:05.144Z,23.93
2019-02-06T16:57:57.805Z,27.20
2019-02-06T17:01:00.997Z,24.53
2019-02-06T17:03:54.842Z,26.17
2019-02-06T17:07:10.500Z,25.83
2019-02-06T17:10:19.651Z,22.63
2019-02-06T17:13:29.914Z,29.37
2019-02-06T17:16:21.393Z,26.53
2019-02-06T17:19:27.266Z,22.17
2019-02-06T17:22:27.959Z,26.27
2019-02-06T17:25:35.202Z,25.97
2019-02-06T17:28:43.364Z,23.35
2019-02-06T17:31:46.737Z,19.60
2019-02-06T17:34:47.810Z,21.20
2019-02-06T17:37:54.509Z,21.60
2019-02-06T17:41:04.822Z,23.32
2019-02-06T17:43:51.547Z,26.03
2019-02-06T17:46:48.966Z,20.48
2019-02-06T17:49:55.381Z,23.67
2019-02-06T17:52:40.713Z,19.30
2019-02-06T17:55:19.989Z,22.00
2019-02-06T17:57:51.780Z,22.17
2019-02-06T18:00:53.249Z,26.05
2019-02-06T18:06:16.568Z,27.65
2019-02-06T18:08:56.489Z,23.47
2019-02-06T18:11:18.269Z,27.87
2019-02-06T18:13:48.313Z,25.77
2019-02-06T18:16:21.496Z,23.00
2019-02-06T18:18:49.972Z,20.80
2019-02-06T18:21:20.211Z,20.97
2019-02-06T18:23:49.884Z,20.70
2019-02-06T18:26:19.906Z,25.35
2019-02-06T18:28:50.842Z,26.50
2019-02-06T18:31:20.592Z,21.85
2019-02-06T18:33:50.781Z,25.13
2019-02-06T18:36:20.540Z,25.13
2019-02-06T18:38:56.163Z,25.87
2019-02-06T18:41:26.246Z,23.73
2019-02-06T18:43:56.277Z,27.77
2019-02-06T18:46:26.113Z,27.23
2019-02-06T18:48:56.001Z,26.47
2019-02-06T18:51:26.368Z,25.00
2019-02-06T18:53:57.867Z,28.27
2019-02-06T18:56:27.655Z,22.62
2019-02-06T18:58:57.329Z,21.73
2019-02-06T19:01:27.388Z,23.50
2019-02-06T19:03:57.081Z,25.17
2019-02-06T19:06:27.263Z,29.05
2019-02-06T19:09:02.064Z,23.13
2019-02-06T19:11:37.418Z,29.63
2019-02-06T19:14:07.458Z,25.43
2019-02-06T19:16:37.569Z,28.13
2019-02-06T19:19:07.609Z,27.23
2019-02-06T19:21:37.495Z,26.33
2019-02-06T19:24:07.516Z,25.33
2019-02-06T19:26:37.202Z,27.30
2019-02-06T19:29:06.953Z,28.27
2019-02-06T19:31:39.699Z,24.87
2019-02-06T19:34:33.603Z,20.17
2019-02-06T19:37:03.374Z,20.77
2019-02-06T19:39:33.089Z,25.17
2019-02-06T19:42:02.757Z,25.90
2019-02-06T19:44:32.518Z,20.27
2019-02-06T19:47:03.043Z,20.70
2019-02-06T19:49:32.875Z,24.63
2019-02-06T19:52:03.239Z,24.37
2019-02-06T19:54:32.982Z,22.83
2019-02-06T19:57:02.662Z,24.77
2019-02-06T19:59:32.406Z,22.37
2019-02-06T20:02:02.188Z,27.07
2019-02-06T20:04:32.200Z,30.50
2019-02-06T20:07:02.773Z,24.73
2019-02-06T20:09:32.971Z,27.00
2019-02-06T20:12:02.803Z,23.97
2019-02-06T20:14:32.474Z,27.50
2019-02-06T20:17:02.533Z,24.00
2019-02-06T20:19:32.958Z,27.27
2019-02-06T20:22:02.895Z,31.00
2019-02-06T20:24:32.575Z,27.53
2019-02-06T20:27:02.258Z,30.63
2019-02-06T20:29:31.971Z,25.70
2019-02-06T20:32:01.717Z,28.33
2019-02-06T20:34:31.816Z,27.70
2019-02-06T20:37:01.495Z,30.03
2019-02-06T20:39:33.242Z,30.07
2019-02-06T20:42:05.250Z,27.43
2019-02-06T20:44:34.945Z,26.17
2019-02-06T20:47:05.040Z,24.43
2019-02-06T20:52:29.191Z,21.63
2019-02-06T20:54:58.883Z,27.20
2019-02-06T20:57:28.645Z,23.97
2019-02-06T21:00:17.859Z,26.13
2019-02-06T21:02:51.129Z,26.90
2019-02-06T21:05:21.490Z,22.83
2019-02-06T21:07:51.829Z,26.07
2019-02-06T21:10:23.740Z,24.52
2019-02-06T21:12:55.542Z,22.40
2019-02-06T21:15:25.732Z,22.67
2019-02-06T21:17:55.475Z,26.03
2019-02-06T21:20:25.317Z,22.27
2019-02-06T21:22:54.981Z,25.43
2019-02-06T21:25:25.077Z,25.45
2019-02-06T21:27:54.874Z,24.73
2019-02-06T21:30:26.530Z,23.43
2019-02-06T21:32:56.351Z,22.67
2019-02-06T21:35:26.102Z,24.60
2019-02-06T21:37:55.792Z,25.93
2019-02-06T21:40:27.341Z,19.67
2019-02-06T21:42:57.545Z,24.23
2019-02-06T21:48:09.403Z,26.23
2019-02-06T21:50:39.869Z,26.10
2019-02-06T21:53:09.752Z,23.10
2019-02-06T21:55:39.736Z,24.17
2019-02-06T21:58:09.410Z,24.70
2019-02-06T22:00:40.769Z,26.27
2019-02-06T22:03:10.963Z,21.03
2019-02-06T22:05:41.943Z,22.30
2019-02-06T22:08:11.635Z,22.07
2019-02-06T22:10:43.680Z,26.57
2019-02-06T22:13:14.101Z,20.17
2019-02-06T22:15:45.879Z,24.33
2019-02-06T22:18:15.551Z,19.83
2019-02-06T22:20:45.405Z,22.93
2019-02-06T22:23:15.174Z,23.05
2019-02-06T22:25:44.852Z,24.07
2019-02-06T22:28:14.555Z,20.48
2019-02-06T22:30:45.261Z,23.00
2019-02-06T22:33:15.048Z,18.55
2019-02-06T22:35:44.739Z,22.43
2019-02-06T22:38:15.565Z,22.07
2019-02-06T22:40:45.236Z,24.53
2019-02-06T22:43:15.418Z,22.37
2019-02-06T22:45:45.544Z,20.37
2019-02-06T22:48:15.232Z,21.00
2019-02-06T22:50:45.192Z,22.43
2019-02-06T22:53:15.013Z,26.70
2019-02-06T22:55:44.936Z,24.77
2019-02-06T22:58:15.277Z,22.77
2019-02-06T23:01:13.697Z,24.70
2019-02-06T23:03:45.501Z,22.80
2019-02-06T23:06:15.344Z,25.95
2019-02-06T23:08:45.945Z,24.10
2019-02-06T23:11:15.804Z,23.07
2019-02-06T23:13:46.830Z,23.90
2019-02-06T23:16:16.795Z,27.77
2019-02-06T23:18:46.548Z,24.30
2019-02-06T23:21:17.017Z,28.37
2019-02-06T23:23:47.032Z,28.50
2019-02-06T23:26:16.777Z,27.67
2019-02-06T23:28:54.769Z,27.67
2019-02-06T23:31:24.440Z,26.73
2019-02-06T23:33:54.395Z,28.57
2019-02-06T23:36:24.092Z,29.33
2019-02-06T23:38:53.930Z,25.93
2019-02-06T23:41:24.069Z,34.25
2019-02-06T23:43:54.248Z,32.37
2019-02-06T23:46:24.411Z,27.57
2019-02-06T23:48:54.266Z,31.03
2019-02-06T23:51:24.215Z,27.50
2019-02-06T23:53:54.270Z,37.88
2019-02-06T23:56:24.922Z,29.90
2019-02-06T23:58:54.591Z,30.67
